首页
METAR-TAF:

METAR-TAF

机场 :

愛麗斯泉機場

愛麗斯泉, 澳大利亚

纬度: 23-48S, 经度: 133-53E, 海拔: 545米

当前天气观测

该预报发布于21分钟前的08:30 UTC
风速7节,风向西转西南
温度 38°C
湿度 6%
气压 1009 hPa
能见度10公里或以上

METAR: YBAS 170830Z AUTO 24007KT 9999 // NCD 38/M06 Q1009 RF00.0/000.0

时间: 18:21 (08:51 UTC)

预报

该预报发布于3小时和49分钟前的05:02 UTC
预报有效从17日的 06点(UTC)到 18日的 06点(UTC)
风速6节,风向东南
能见度10公里或以上
1500米以下无云,无积雨云

TAF: YBAS 170502Z 1706/1806 13006KT CAVOK

超过4000个机场的气象观测和天气预报(METAR&TAF报告)。

可查询的气象台以黄色和红色小点在地图上表示。

将鼠标移到小点上方,可查看气象台名称。

然后点击查看天气观测和预报。

如需切换地图:点击带黑十字的绿色按钮放大地图;点击带横线的绿色按钮缩小地图;或者点击绿色箭头查看邻近地区的地图。


METAR-TAF: